createdAt,value
2022-10-18T00:00:25.753Z,102488.28
2022-10-18T00:02:53.395Z,102488.28
2022-10-18T00:05:21.077Z,102481.19
2022-10-18T00:07:48.714Z,102476.81
2022-10-18T00:10:16.364Z,102467.63
2022-10-18T00:12:44.236Z,102472.22
2022-10-18T00:15:13.362Z,102463.03
2022-10-18T00:17:41.218Z,102465.97
2022-10-18T00:20:09.871Z,102462.44
2022-10-18T00:22:38.892Z,102458.88
2022-10-18T00:25:08.780Z,102466.81
2022-10-18T00:27:36.512Z,102465.16
2022-10-18T00:30:04.742Z,102460.56
2022-10-18T00:32:37.539Z,102453.47
2022-10-18T00:35:06.693Z,102458.06
2022-10-18T00:37:34.933Z,102463.47
2022-10-18T00:40:03.090Z,102467.03
2022-10-18T00:42:33.996Z,102471.63
2022-10-18T00:45:06.555Z,102472.66
2022-10-18T00:47:36.826Z,102474.31
2022-10-18T00:50:06.771Z,102478.09
2022-10-18T00:52:37.612Z,102463.69
2022-10-18T00:55:07.139Z,102467.47
2022-10-18T00:57:35.262Z,102469.34
2022-10-18T01:00:07.440Z,102477.47
2022-10-18T01:02:37.292Z,102476.66
2022-10-18T01:05:05.706Z,102472.28
2022-10-18T01:07:51.002Z,102477.69
2022-10-18T01:10:26.309Z,102480.41
2022-10-18T01:13:09.963Z,102475.41
2022-10-18T01:15:52.358Z,102482.50
2022-10-18T01:18:26.899Z,102480.63
2022-10-18T01:21:11.704Z,102485.22
2022-10-18T01:24:19.225Z,102485.22
2022-10-18T01:27:08.100Z,102487.09
2022-10-18T01:29:51.875Z,102478.34
2022-10-18T01:32:23.948Z,102478.34
2022-10-18T01:34:57.183Z,102483.78
2022-10-18T01:37:26.109Z,102483.78
2022-10-18T01:39:59.467Z,102486.47
2022-10-18T01:42:27.919Z,102488.59
2022-10-18T01:44:56.456Z,102487.75
2022-10-18T01:47:26.483Z,102491.50
2022-10-18T01:49:59.366Z,102491.28
2022-10-18T01:52:27.050Z,102486.69
2022-10-18T01:54:56.416Z,102482.31
2022-10-18T01:57:31.935Z,102489.41
2022-10-18T02:00:03.877Z,102490.47
2022-10-18T02:02:43.577Z,102489.63
2022-10-18T02:05:18.019Z,102485.03
2022-10-18T02:08:00.211Z,102469.41
2022-10-18T02:10:42.812Z,102481.50
2022-10-18T02:13:13.844Z,102479.63
2022-10-18T02:15:45.451Z,102483.38
2022-10-18T02:18:19.516Z,102487.13
2022-10-18T02:20:49.426Z,102493.38
2022-10-18T02:23:22.334Z,102489.84
2022-10-18T02:25:50.164Z,102484.41
2022-10-18T02:28:17.967Z,102491.72
2022-10-18T02:30:52.857Z,102489.00
2022-10-18T02:33:28.701Z,102492.78
2022-10-18T02:36:02.110Z,102491.72
2022-10-18T02:38:31.748Z,102485.47
2022-10-18T02:41:00.015Z,102495.47
2022-10-18T02:43:27.942Z,102502.78
2022-10-18T02:45:55.894Z,102499.25
2022-10-18T02:48:24.938Z,102493.00
2022-10-18T02:50:52.606Z,102486.34
2022-10-18T02:53:20.310Z,102494.03
2022-10-18T02:55:48.031Z,102485.91
2022-10-18T02:58:15.672Z,102489.44
2022-10-18T03:00:43.286Z,102488.22
2022-10-18T03:03:10.933Z,102497.81
2022-10-18T03:05:39.900Z,102496.97
2022-10-18T03:08:07.606Z,102492.38
2022-10-18T03:10:35.241Z,102493.44
2022-10-18T03:13:02.867Z,102495.31
2022-10-18T03:15:30.489Z,102495.31
2022-10-18T03:17:58.106Z,102480.34
2022-10-18T03:20:25.722Z,102489.28
2022-10-18T03:22:54.738Z,102496.56
2022-10-18T03:25:22.403Z,102495.75
2022-10-18T03:27:50.057Z,102495.53
2022-10-18T03:30:17.998Z,102508.25
2022-10-18T03:32:45.658Z,102510.97
2022-10-18T03:35:13.326Z,102506.59
2022-10-18T03:37:40.982Z,102511.16
2022-10-18T03:40:11.016Z,102510.34
2022-10-18T03:42:38.755Z,102506.19
2022-10-18T03:45:07.577Z,102509.28
2022-10-18T03:47:35.328Z,102497.63
2022-10-18T03:50:03.022Z,102504.91
2022-10-18T03:52:31.008Z,102497.63
2022-10-18T03:54:58.953Z,102495.13
2022-10-18T03:57:28.089Z,102492.19
2022-10-18T03:59:55.735Z,102497.63
2022-10-18T04:02:23.407Z,102492.41
2022-10-18T04:04:51.040Z,102494.91
2022-10-18T04:07:18.998Z,102492.41
2022-10-18T04:09:46.698Z,102493.25
2022-10-18T04:12:14.347Z,102488.03
2022-10-18T04:14:43.420Z,102489.69
2022-10-18T04:17:11.112Z,102484.28
2022-10-18T04:19:38.769Z,102496.16
2022-10-18T04:22:06.435Z,102504.31
2022-10-18T04:24:34.076Z,102496.16
2022-10-18T04:27:01.704Z,102500.75
2022-10-18T04:29:29.319Z,102505.34
2022-10-18T04:31:58.341Z,102497.22
2022-10-18T04:34:25.999Z,102499.94
2022-10-18T04:36:54.234Z,102498.25
2022-10-18T04:39:21.917Z,102502.84
2022-10-18T04:41:49.616Z,102496.59
2022-10-18T04:44:17.438Z,102504.72
2022-10-18T04:46:45.099Z,102514.75
2022-10-18T04:49:14.509Z,102515.78
2022-10-18T04:51:42.181Z,102498.28
2022-10-18T04:54:09.831Z,102500.34
2022-10-18T04:56:37.511Z,102508.72
2022-10-18T04:59:05.162Z,102517.88
2022-10-18T05:01:32.839Z,102522.47
2022-10-18T05:04:00.563Z,102517.06
2022-10-18T05:06:29.587Z,102510.81
2022-10-18T05:08:57.286Z,102515.41
2022-10-18T05:11:24.952Z,102517.28
2022-10-18T05:13:52.771Z,102515.59
2022-10-18T05:16:20.439Z,102512.91
2022-10-18T05:18:48.170Z,102522.91
2022-10-18T05:21:15.937Z,102528.31
2022-10-18T05:23:44.879Z,102530.22
2022-10-18T05:26:12.639Z,102525.84
2022-10-18T05:28:41.325Z,102526.88
2022-10-18T05:31:12.364Z,102509.00
2022-10-18T05:33:40.240Z,102519.56
2022-10-18T05:36:08.580Z,102517.91
2022-10-18T05:38:38.842Z,102523.34
2022-10-18T05:41:08.073Z,102527.91
2022-10-18T05:43:35.768Z,102531.47
2022-10-18T05:46:04.186Z,102532.50
2022-10-18T05:48:31.972Z,102531.69
2022-10-18T05:51:00.045Z,102539.81
2022-10-18T05:53:42.940Z,102536.28
2022-10-18T05:56:12.757Z,102538.16
2022-10-18T05:58:41.540Z,102540.03
2022-10-18T06:01:10.279Z,102548.16
2022-10-18T06:03:37.977Z,102553.56
2022-10-18T06:06:07.600Z,102545.66
2022-10-18T06:08:36.514Z,102559.84
2022-10-18T06:11:08.021Z,102561.72
2022-10-18T06:13:41.054Z,102566.28
2022-10-18T06:16:09.405Z,102562.53
2022-10-18T06:18:37.159Z,102559.84
2022-10-18T06:21:05.285Z,102557.56
2022-10-18T06:23:32.935Z,102565.47
2022-10-18T06:26:01.665Z,102563.84
2022-10-18T06:28:30.376Z,102567.59
2022-10-18T06:30:59.449Z,102563.84
2022-10-18T06:33:27.410Z,102563.84
2022-10-18T06:35:56.515Z,102570.28
2022-10-18T06:38:24.263Z,102561.34
2022-10-18T06:40:52.147Z,102566.75
2022-10-18T06:43:21.393Z,102574.88
2022-10-18T06:45:49.317Z,102575.09
2022-10-18T06:50:56.910Z,102580.53
2022-10-18T06:53:26.112Z,102580.69
2022-10-18T06:55:54.146Z,102586.13
2022-10-18T06:58:21.786Z,102587.16
2022-10-18T07:00:49.427Z,102592.78
2022-10-18T07:03:18.437Z,102595.50
2022-10-18T07:05:46.116Z,102591.13
2022-10-18T07:08:13.761Z,102601.97
2022-10-18T07:10:41.464Z,102611.97
2022-10-18T07:13:30.969Z,102616.34
2022-10-18T07:16:05.606Z,102613.84
2022-10-18T07:18:35.793Z,102617.41
2022-10-18T07:21:04.920Z,102629.28
2022-10-18T07:23:33.888Z,102630.94
2022-10-18T07:26:01.960Z,102634.69
2022-10-18T07:28:30.428Z,102639.28
2022-10-18T07:31:01.206Z,102636.78
2022-10-18T07:33:31.258Z,102641.38
2022-10-18T07:36:03.492Z,102653.88
2022-10-18T07:38:31.200Z,102657.63
2022-10-18T07:40:59.449Z,102653.03
2022-10-18T07:43:27.332Z,102657.63
2022-10-18T07:45:55.707Z,102656.78
2022-10-18T07:48:23.538Z,102674.09
2022-10-18T07:50:51.323Z,102677.84
2022-10-18T07:53:20.611Z,102670.28
2022-10-18T07:55:48.286Z,102674.03
2022-10-18T07:58:15.941Z,102685.91
2022-10-18T08:00:44.299Z,102696.75
2022-10-18T08:03:11.942Z,102691.53
2022-10-18T08:05:39.588Z,102694.88
2022-10-18T08:08:08.220Z,102706.16
2022-10-18T08:10:37.583Z,102711.38
2022-10-18T08:13:05.247Z,102708.25
2022-10-18T08:15:32.989Z,102708.47
2022-10-18T08:18:00.688Z,102709.09
2022-10-18T08:20:31.129Z,102713.69
2022-10-18T08:23:00.573Z,102714.72
2022-10-18T08:25:28.925Z,102723.06
2022-10-18T08:27:58.326Z,102715.16
2022-10-18T08:30:26.069Z,102714.31
2022-10-18T08:32:53.898Z,102718.91
2022-10-18T08:35:21.591Z,102722.88
2022-10-18T08:37:49.220Z,102728.28
2022-10-18T08:40:17.414Z,102733.72
2022-10-18T08:43:00.359Z,102738.28
2022-10-18T08:45:41.561Z,102731.22
2022-10-18T08:48:21.794Z,102740.38
2022-10-18T08:50:51.986Z,102742.06
2022-10-18T08:53:26.017Z,102738.50
2022-10-18T08:55:58.864Z,102743.09
2022-10-18T08:58:32.109Z,102748.94
2022-10-18T09:01:08.707Z,102744.59
2022-10-18T09:03:48.492Z,102738.53
2022-10-18T09:06:24.080Z,102746.47
2022-10-18T09:09:04.456Z,102747.50
2022-10-18T09:11:51.686Z,102745.63
2022-10-18T09:14:34.337Z,102745.41
2022-10-18T09:17:15.841Z,102741.88
2022-10-18T09:22:38.867Z,102753.31
2022-10-18T09:25:17.292Z,102742.25
2022-10-18T09:27:52.533Z,102742.06
2022-10-18T09:30:30.562Z,102742.06
2022-10-18T09:33:11.748Z,102749.34
2022-10-18T09:35:44.843Z,102750.19
2022-10-18T09:38:15.658Z,102748.31
2022-10-18T09:40:52.901Z,102748.09
2022-10-18T09:43:24.651Z,102756.03
2022-10-18T09:45:55.576Z,102754.97
2022-10-18T09:48:28.757Z,102758.31
2022-10-18T09:51:00.147Z,102751.84
2022-10-18T09:53:36.954Z,102756.22
2022-10-18T09:56:08.151Z,102740.59
2022-10-18T09:58:44.086Z,102759.34
2022-10-18T10:01:15.338Z,102753.94
2022-10-18T10:03:44.384Z,102749.13
2022-10-18T10:06:24.697Z,102748.09
2022-10-18T10:08:58.850Z,102750.81
2022-10-18T10:11:35.623Z,102759.78
2022-10-18T10:14:11.625Z,102766.22
2022-10-18T10:16:52.554Z,102750.38
2022-10-18T10:19:25.642Z,102748.72
2022-10-18T10:21:58.075Z,102739.94
2022-10-18T10:24:31.291Z,102749.94
2022-10-18T10:27:05.469Z,102755.16
2022-10-18T10:29:53.888Z,102745.97
2022-10-18T10:32:23.816Z,102740.97
2022-10-18T10:34:53.182Z,102739.94
2022-10-18T10:37:30.208Z,102746.81
2022-10-18T10:40:21.849Z,102761.00
2022-10-18T10:43:18.368Z,102758.91
2022-10-18T10:45:59.134Z,102777.69
2022-10-18T10:48:31.137Z,102769.53
2022-10-18T10:51:06.075Z,102761.41
2022-10-18T10:53:38.841Z,102767.03
2022-10-18T10:56:07.968Z,102773.06
2022-10-18T10:58:38.991Z,102784.53
2022-10-18T11:01:25.561Z,102778.91
2022-10-18T11:03:55.649Z,102780.38
2022-10-18T11:06:51.223Z,102767.66
2022-10-18T11:09:34.944Z,102778.06
2022-10-18T11:12:09.291Z,102785.78
2022-10-18T11:14:42.613Z,102780.75
2022-10-18T11:21:00.970Z,102778.25
2022-10-18T11:23:33.411Z,102775.31
2022-10-18T11:26:21.906Z,102774.88
2022-10-18T11:29:23.815Z,102777.38
2022-10-18T11:32:01.630Z,102774.47
2022-10-18T11:34:48.259Z,102777.78
2022-10-18T11:37:34.719Z,102776.75
2022-10-18T11:40:20.204Z,102779.25
2022-10-18T11:42:57.793Z,102775.47
2022-10-18T11:45:33.883Z,102763.78
2022-10-18T11:48:11.978Z,102776.72
2022-10-18T11:50:49.281Z,102767.53
2022-10-18T11:53:25.668Z,102765.22
2022-10-18T11:56:03.877Z,102762.28
2022-10-18T11:58:45.643Z,102765.63
2022-10-18T12:01:24.700Z,102773.16
2022-10-18T12:04:02.974Z,102767.50
2022-10-18T12:06:35.945Z,102755.81
2022-10-18T12:09:09.317Z,102756.88
2022-10-18T12:11:47.149Z,102757.91
2022-10-18T12:14:23.678Z,102762.50
2022-10-18T12:17:02.799Z,102764.19
2022-10-18T12:19:41.853Z,102752.25
2022-10-18T12:22:19.310Z,102752.25
2022-10-18T12:24:47.038Z,102751.22
2022-10-18T12:27:17.650Z,102752.06
2022-10-18T12:29:51.526Z,102746.41
2022-10-18T12:32:23.333Z,102748.69
2022-10-18T12:34:54.061Z,102751.19
2022-10-18T12:37:40.977Z,102740.72
2022-10-18T12:40:18.796Z,102737.78
2022-10-18T12:42:52.736Z,102732.16
2022-10-18T12:45:30.174Z,102732.59
2022-10-18T12:48:01.425Z,102749.66
2022-10-18T12:50:35.908Z,102737.75
2022-10-18T12:53:07.268Z,102737.31
2022-10-18T12:55:37.584Z,102736.72
2022-10-18T12:58:24.916Z,102735.66
2022-10-18T13:01:05.632Z,102729.19
2022-10-18T13:03:58.661Z,102727.91
2022-10-18T13:06:26.475Z,102732.28
2022-10-18T13:09:20.883Z,102732.06
2022-10-18T13:11:49.081Z,102727.47
2022-10-18T13:14:34.800Z,102726.41
2022-10-18T13:17:11.963Z,102724.53
2022-10-18T13:20:02.888Z,102730.81
2022-10-18T13:22:51.732Z,102722.66
2022-10-18T13:25:28.524Z,102723.47
2022-10-18T13:28:01.919Z,102722.44
2022-10-18T13:30:48.939Z,102724.09
2022-10-18T13:33:39.047Z,102726.59
2022-10-18T13:36:23.057Z,102719.28
2022-10-18T13:39:03.129Z,102720.13
2022-10-18T13:41:35.322Z,102727.22
2022-10-18T13:44:25.759Z,102722.00
2022-10-18T13:47:37.653Z,102725.53
2022-10-18T13:50:27.912Z,102731.81
2022-10-18T13:53:26.017Z,102730.75
2022-10-18T13:56:09.621Z,102735.13
2022-10-18T13:58:49.259Z,102727.22
2022-10-18T14:01:42.685Z,102724.50
2022-10-18T14:04:35.107Z,102729.94
2022-10-18T14:07:05.993Z,102724.72
2022-10-18T14:09:44.865Z,102727.00
2022-10-18T14:12:22.530Z,102735.34
2022-10-18T14:14:56.008Z,102739.13
2022-10-18T14:17:31.383Z,102728.25
2022-10-18T14:20:07.443Z,102737.25
2022-10-18T14:22:41.978Z,102732.66
2022-10-18T14:25:22.306Z,102734.31
2022-10-18T14:27:53.678Z,102729.50
2022-10-18T14:30:22.417Z,102734.09
2022-10-18T14:32:52.716Z,102735.56
2022-10-18T14:35:38.920Z,102740.41
2022-10-18T14:38:14.598Z,102743.34
2022-10-18T14:40:42.416Z,102738.13
2022-10-18T14:43:13.589Z,102741.88
2022-10-18T14:45:42.507Z,102739.38
2022-10-18T14:48:16.345Z,102738.56
2022-10-18T14:50:48.545Z,102735.84
2022-10-18T14:53:20.980Z,102736.88
2022-10-18T14:55:55.848Z,102737.72
2022-10-18T14:58:23.895Z,102736.88
2022-10-18T15:00:51.705Z,102734.16
2022-10-18T15:03:19.762Z,102733.13
2022-10-18T15:05:58.051Z,102723.56
2022-10-18T15:08:27.975Z,102733.13
2022-10-18T15:10:56.078Z,102726.63
2022-10-18T15:13:25.132Z,102731.84
2022-10-18T15:15:53.854Z,102737.28
2022-10-18T15:18:24.120Z,102738.34
2022-10-18T15:21:20.319Z,102734.78
2022-10-18T15:23:47.988Z,102727.47
2022-10-18T15:26:20.853Z,102734.78
2022-10-18T15:28:53.161Z,102724.97
2022-10-18T15:31:25.118Z,102730.41
2022-10-18T15:33:53.551Z,102733.13
2022-10-18T15:36:29.352Z,102732.28
2022-10-18T15:39:08.921Z,102708.69
2022-10-18T15:41:43.779Z,102724.97
2022-10-18T15:44:22.087Z,102725.19
2022-10-18T15:46:52.926Z,102723.31
2022-10-18T15:49:52.499Z,102716.22
2022-10-18T15:52:37.796Z,102719.97
2022-10-18T15:55:53.532Z,102727.28
2022-10-18T15:58:23.755Z,102728.34
2022-10-18T16:00:52.953Z,102736.50
2022-10-18T16:03:23.872Z,102737.53
2022-10-18T16:05:53.243Z,102737.53
2022-10-18T16:08:25.213Z,102726.91
2022-10-18T16:10:53.148Z,102733.16
2022-10-18T16:13:20.910Z,102731.50
2022-10-18T16:15:48.750Z,102730.66
2022-10-18T16:18:19.323Z,102732.97
2022-10-18T16:20:48.706Z,102727.31
2022-10-18T16:23:19.323Z,102729.44
2022-10-18T16:25:48.729Z,102738.63
2022-10-18T16:28:18.806Z,102736.75
2022-10-18T16:30:48.304Z,102735.06
2022-10-18T16:33:19.219Z,102738.84
2022-10-18T16:35:49.429Z,102747.00
2022-10-18T16:38:32.555Z,102745.31
2022-10-18T16:41:05.719Z,102752.84
2022-10-18T16:43:34.729Z,102763.72
2022-10-18T16:46:03.724Z,102762.03
2022-10-18T16:48:31.575Z,102766.84
2022-10-18T16:50:59.711Z,102761.66
2022-10-18T16:53:28.192Z,102773.78
2022-10-18T16:55:58.339Z,102783.59
2022-10-18T16:58:29.030Z,102781.09
2022-10-18T17:00:57.153Z,102775.88
2022-10-18T17:03:25.585Z,102784.00
2022-10-18T17:05:53.574Z,102785.06
2022-10-18T17:08:22.995Z,102778.97
2022-10-18T17:10:52.910Z,102785.06
2022-10-18T17:13:21.187Z,102798.19
2022-10-18T17:15:50.898Z,102800.09
2022-10-18T17:18:21.677Z,102794.03
2022-10-18T17:20:50.409Z,102802.19
2022-10-18T17:23:18.439Z,102795.91
2022-10-18T17:25:59.056Z,102793.19
2022-10-18T17:28:35.007Z,102793.41
2022-10-18T17:31:07.003Z,102781.75
2022-10-18T17:33:34.818Z,102791.97
2022-10-18T17:36:02.720Z,102791.13
2022-10-18T17:38:30.385Z,102795.72
2022-10-18T17:40:58.060Z,102806.78
2022-10-18T17:43:26.050Z,102805.13
2022-10-18T17:45:56.703Z,102802.63
2022-10-18T17:48:28.294Z,102810.97
2022-10-18T17:50:56.098Z,102814.75
2022-10-18T17:53:28.440Z,102819.34
2022-10-18T17:56:02.462Z,102826.66
2022-10-18T17:58:30.989Z,102823.72
2022-10-18T18:00:58.760Z,102821.84
2022-10-18T18:03:27.885Z,102825.38
2022-10-18T18:05:55.709Z,102829.16
2022-10-18T18:08:25.424Z,102828.31
2022-10-18T18:10:55.503Z,102822.47
2022-10-18T18:13:23.207Z,102822.47
2022-10-18T18:15:50.942Z,102818.94
2022-10-18T18:18:18.582Z,102831.66
2022-10-18T18:20:55.023Z,102839.81
2022-10-18T18:23:23.067Z,102825.63
2022-10-18T18:25:56.339Z,102826.22
2022-10-18T18:28:24.332Z,102827.06
2022-10-18T18:30:52.005Z,102827.91
2022-10-18T18:33:19.662Z,102828.94
2022-10-18T18:35:57.171Z,102836.25
2022-10-18T18:38:24.935Z,102834.59
2022-10-18T18:41:04.092Z,102822.28
2022-10-18T18:43:31.758Z,102828.75
2022-10-18T18:45:59.523Z,102829.81
2022-10-18T18:48:27.361Z,102825.63
2022-10-18T18:50:56.524Z,102839.19
2022-10-18T18:53:28.521Z,102835.84
2022-10-18T18:56:02.431Z,102830.66
2022-10-18T18:58:30.129Z,102828.97
2022-10-18T19:00:57.860Z,102840.88
2022-10-18T19:03:25.682Z,102839.41
2022-10-18T19:06:04.680Z,102834.81
2022-10-18T19:08:32.467Z,102836.91
2022-10-18T19:11:00.189Z,102835.25
2022-10-18T19:13:27.876Z,102836.50
2022-10-18T19:16:28.216Z,102832.34
2022-10-18T19:18:58.739Z,102829.22
2022-10-18T19:21:30.163Z,102828.16
2022-10-18T19:23:58.600Z,102828.38
2022-10-18T19:26:30.261Z,102830.47
2022-10-18T19:29:02.295Z,102825.25
2022-10-18T19:31:30.294Z,102829.00
2022-10-18T19:33:59.672Z,102827.53
2022-10-18T19:36:29.439Z,102832.13
2022-10-18T19:38:57.518Z,102828.78
2022-10-18T19:43:58.528Z,102836.53
2022-10-18T19:46:26.523Z,102839.44
2022-10-18T19:48:54.896Z,102836.09
2022-10-18T19:51:27.680Z,102841.53
2022-10-18T19:53:57.981Z,102844.44
2022-10-18T19:56:27.386Z,102845.50
2022-10-18T19:58:55.302Z,102841.94
2022-10-18T20:01:23.238Z,102842.16
2022-10-18T20:03:51.038Z,102847.78
2022-10-18T20:06:18.809Z,102849.66
2022-10-18T20:08:46.780Z,102847.16
2022-10-18T20:11:17.627Z,102827.75
2022-10-18T20:13:45.563Z,102844.03
2022-10-18T20:16:15.628Z,102845.06
2022-10-18T20:18:44.158Z,102845.06
2022-10-18T20:21:13.347Z,102840.28
2022-10-18T20:23:42.615Z,102841.31
2022-10-18T20:26:17.985Z,102832.56
2022-10-18T20:28:55.897Z,102830.88
2022-10-18T20:31:25.402Z,102840.91
2022-10-18T20:33:56.167Z,102829.44
2022-10-18T20:36:24.190Z,102830.47
2022-10-18T20:38:53.048Z,102828.78
2022-10-18T20:41:23.010Z,102819.41
2022-10-18T20:43:56.998Z,102822.94
2022-10-18T20:46:25.556Z,102829.41
2022-10-18T20:48:54.306Z,102834.00
2022-10-18T20:51:22.995Z,102827.97
2022-10-18T20:53:51.132Z,102820.47
2022-10-18T20:56:20.638Z,102838.16
2022-10-18T20:58:50.476Z,102823.41
2022-10-18T21:01:20.918Z,102825.06
2022-10-18T21:03:50.458Z,102830.69
2022-10-18T21:06:20.027Z,102838.16
2022-10-18T21:08:47.928Z,102828.34
2022-10-18T21:11:15.559Z,102834.00
2022-10-18T21:13:43.240Z,102835.03
2022-10-18T21:16:10.891Z,102833.34
2022-10-18T21:18:40.383Z,102830.84
2022-10-18T21:21:10.450Z,102828.34
2022-10-18T21:23:38.189Z,102825.84
2022-10-18T21:26:06.258Z,102825.00
2022-10-18T21:28:34.241Z,102824.19
2022-10-18T21:31:13.755Z,102826.25
2022-10-18T21:33:43.462Z,102835.84
2022-10-18T21:36:11.569Z,102831.06
2022-10-18T21:38:39.897Z,102830.22
2022-10-18T21:41:11.904Z,102827.72
2022-10-18T21:43:41.827Z,102821.66
2022-10-18T21:46:10.993Z,102819.38
2022-10-18T21:48:39.500Z,102824.78
2022-10-18T21:51:09.373Z,102817.69
2022-10-18T21:53:37.335Z,102820.59
2022-10-18T21:56:07.425Z,102825.41
2022-10-18T21:58:35.987Z,102821.84
2022-10-18T22:01:07.159Z,102818.31
2022-10-18T22:03:34.878Z,102821.22
2022-10-18T22:06:07.561Z,102818.91
2022-10-18T22:08:37.032Z,102815.38
2022-10-18T22:11:04.918Z,102811.00
2022-10-18T22:13:32.826Z,102806.63
2022-10-18T22:16:01.931Z,102812.25
2022-10-18T22:18:29.802Z,102811.63
2022-10-18T22:20:58.924Z,102811.63
2022-10-18T22:23:32.330Z,102814.72
2022-10-18T22:26:05.710Z,102815.56
2022-10-18T22:28:33.413Z,102810.34
2022-10-18T22:31:01.145Z,102811.38
2022-10-18T22:33:29.327Z,102817.00
2022-10-18T22:35:57.195Z,102820.56
2022-10-18T22:38:25.162Z,102818.88
2022-10-18T22:40:52.901Z,102826.38
2022-10-18T22:43:21.900Z,102820.97
2022-10-18T22:45:49.558Z,102812.22
2022-10-18T22:48:17.235Z,102821.38
2022-10-18T22:50:44.876Z,102812.63
2022-10-18T22:53:12.563Z,102805.53
2022-10-18T22:55:40.229Z,102809.28
2022-10-18T22:58:07.917Z,102806.56
2022-10-18T23:00:39.221Z,102814.06
2022-10-18T23:03:07.046Z,102807.81
2022-10-18T23:05:38.264Z,102806.13
2022-10-18T23:08:06.195Z,102805.31
2022-10-18T23:10:34.020Z,102809.88
2022-10-18T23:13:02.106Z,102810.09
2022-10-18T23:15:30.395Z,102809.44
2022-10-18T23:17:59.689Z,102817.56
2022-10-18T23:20:27.997Z,102800.88
2022-10-18T23:22:55.673Z,102812.56
2022-10-18T23:25:23.353Z,102808.38
2022-10-18T23:27:51.016Z,102814.22
2022-10-18T23:30:18.819Z,102814.22
2022-10-18T23:32:46.460Z,102816.09
2022-10-18T23:35:15.516Z,102815.44
2022-10-18T23:37:43.141Z,102814.81
2022-10-18T23:40:11.694Z,102812.31
2022-10-18T23:42:39.409Z,102821.47
2022-10-18T23:45:08.531Z,102816.25
2022-10-18T23:47:36.361Z,102819.16
2022-10-18T23:50:04.496Z,102810.22
2022-10-18T23:52:33.506Z,102811.44
2022-10-18T23:55:01.233Z,102815.81
2022-10-18T23:57:28.893Z,102808.94
2022-10-18T23:59:56.679Z,102811.66
